createdAt,value
2023-05-24T00:01:57.587Z,4.60
2023-05-24T00:04:30.461Z,4.70
2023-05-24T00:06:58.242Z,4.45
2023-05-24T00:09:24.970Z,4.70
2023-05-24T00:11:51.628Z,4.45
2023-05-24T00:14:18.473Z,4.65
2023-05-24T00:16:46.801Z,4.47
2023-05-24T00:19:18.328Z,4.20
2023-05-24T00:21:46.066Z,4.40
2023-05-24T00:24:13.113Z,4.35
2023-05-24T00:26:39.950Z,4.50
2023-05-24T00:29:06.942Z,4.28
2023-05-24T00:31:33.821Z,4.10
2023-05-24T00:34:00.587Z,4.45
2023-05-24T00:36:27.243Z,4.30
2023-05-24T00:38:54.073Z,4.40
2023-05-24T00:41:20.800Z,4.47
2023-05-24T00:43:47.422Z,4.00
2023-05-24T00:46:26.036Z,4.47
2023-05-24T00:48:53.078Z,4.32
2023-05-24T00:51:20.006Z,4.63
2023-05-24T00:53:48.888Z,4.40
2023-05-24T00:56:16.868Z,4.40
2023-05-24T00:58:44.301Z,4.55
2023-05-24T01:03:37.999Z,4.97
2023-05-24T01:06:07.991Z,5.30
2023-05-24T01:08:42.531Z,5.60
2023-05-24T01:11:42.001Z,6.00
2023-05-24T01:14:28.272Z,6.70
2023-05-24T01:17:03.814Z,6.60
2023-05-24T01:19:51.270Z,6.10
2023-05-24T01:22:39.954Z,5.35
2023-05-24T01:25:34.448Z,5.22
2023-05-24T01:28:04.350Z,4.90
2023-05-24T01:30:31.226Z,5.03
2023-05-24T01:32:58.136Z,4.57
2023-05-24T01:35:25.103Z,4.53
2023-05-24T01:37:51.775Z,5.05
2023-05-24T01:40:18.772Z,5.22
2023-05-24T01:43:04.023Z,4.97
2023-05-24T01:45:55.220Z,4.88
2023-05-24T01:48:58.773Z,5.00
2023-05-24T01:51:30.446Z,4.85
2023-05-24T01:53:59.275Z,4.60
2023-05-24T01:56:28.064Z,4.63
2023-05-24T01:58:55.550Z,4.78
2023-05-24T02:03:50.538Z,4.40
2023-05-24T02:06:17.242Z,4.70
2023-05-24T02:08:44.085Z,4.80
2023-05-24T02:11:10.728Z,4.65
2023-05-24T02:13:37.365Z,4.30
2023-05-24T02:16:05.287Z,4.90
2023-05-24T02:18:34.923Z,4.95
2023-05-24T02:21:02.843Z,4.57
2023-05-24T02:23:29.682Z,5.03
2023-05-24T02:25:56.671Z,5.07
2023-05-24T02:28:23.472Z,5.07
2023-05-24T02:30:50.162Z,4.60
2023-05-24T02:33:17.005Z,4.95
2023-05-24T02:35:43.680Z,4.85
2023-05-24T02:38:10.360Z,4.75
2023-05-24T02:40:37.046Z,5.20
2023-05-24T02:43:03.701Z,4.57
2023-05-24T02:45:30.458Z,4.50
2023-05-24T02:47:57.178Z,4.15
2023-05-24T02:50:23.895Z,4.60
2023-05-24T02:52:50.510Z,4.68
2023-05-24T02:55:17.164Z,4.78
2023-05-24T02:57:43.804Z,4.70
2023-05-24T03:00:11.799Z,4.78
2023-05-24T03:05:06.050Z,4.68
2023-05-24T03:07:32.805Z,4.72
2023-05-24T03:09:59.554Z,5.53
2023-05-24T03:12:26.334Z,5.53
2023-05-24T03:14:52.994Z,5.82
2023-05-24T03:17:19.798Z,5.53
2023-05-24T03:19:46.452Z,5.90
2023-05-24T03:22:13.144Z,4.87
2023-05-24T03:24:40.238Z,4.78
2023-05-24T03:27:07.127Z,4.97
2023-05-24T03:29:33.785Z,5.05
2023-05-24T03:32:00.684Z,5.53
2023-05-24T03:34:27.413Z,5.43
2023-05-24T03:36:54.108Z,6.25
2023-05-24T03:39:20.726Z,4.65
2023-05-24T03:41:47.373Z,4.53
2023-05-24T03:44:14.045Z,5.13
2023-05-24T03:46:41.004Z,5.45
2023-05-24T03:49:07.961Z,5.63
2023-05-24T03:51:34.671Z,5.13
2023-05-24T03:54:01.324Z,4.50
2023-05-24T03:56:28.027Z,4.63
2023-05-24T03:58:54.797Z,5.20
2023-05-24T04:01:32.728Z,5.75
2023-05-24T04:04:01.774Z,6.68
2023-05-24T04:06:29.464Z,6.47
2023-05-24T04:08:58.069Z,6.50
2023-05-24T04:11:28.520Z,7.13
2023-05-24T04:14:00.661Z,6.88
2023-05-24T04:16:28.642Z,7.15
2023-05-24T04:18:56.482Z,6.57
2023-05-24T04:21:23.938Z,6.95
2023-05-24T04:26:17.904Z,6.70
2023-05-24T04:28:45.736Z,6.78
2023-05-24T04:31:12.638Z,6.30
2023-05-24T04:33:39.759Z,6.60
2023-05-24T04:36:08.495Z,6.75
2023-05-24T04:38:36.318Z,7.25
2023-05-24T04:41:03.256Z,7.13
2023-05-24T04:43:29.910Z,7.32
2023-05-24T04:45:56.744Z,7.32
2023-05-24T04:48:24.749Z,7.30
2023-05-24T04:50:56.074Z,7.15
2023-05-24T04:53:23.872Z,7.10
2023-05-24T04:55:51.216Z,7.10
2023-05-24T04:58:18.155Z,7.18
2023-05-24T05:00:45.474Z,6.82
2023-05-24T05:03:12.318Z,6.90
2023-05-24T05:05:39.132Z,6.72
2023-05-24T05:08:06.755Z,6.88
2023-05-24T05:10:33.661Z,6.45
2023-05-24T05:13:00.347Z,6.18
2023-05-24T05:15:27.194Z,5.90
2023-05-24T05:17:53.980Z,6.45
2023-05-24T05:20:20.792Z,6.00
2023-05-24T05:22:48.816Z,5.88
2023-05-24T05:25:15.794Z,6.10
2023-05-24T05:27:42.527Z,6.93
2023-05-24T05:30:09.834Z,6.60
2023-05-24T05:35:04.194Z,6.57
2023-05-24T05:39:58.215Z,6.15
2023-05-24T05:42:25.167Z,6.30
2023-05-24T05:44:52.794Z,5.78
2023-05-24T05:47:19.604Z,5.47
2023-05-24T05:49:46.316Z,5.05
2023-05-24T05:52:13.073Z,6.22
2023-05-24T05:54:39.773Z,5.88
2023-05-24T05:57:08.339Z,6.35
2023-05-24T05:59:36.442Z,5.72
2023-05-24T06:02:06.913Z,6.15
2023-05-24T06:04:34.157Z,6.03
2023-05-24T06:07:01.015Z,5.93
2023-05-24T06:09:27.694Z,5.90
2023-05-24T06:11:54.522Z,5.35
2023-05-24T06:14:25.333Z,5.43
2023-05-24T06:16:54.629Z,5.57
2023-05-24T06:19:21.895Z,5.63
2023-05-24T06:24:21.485Z,5.32
2023-05-24T06:26:51.355Z,4.90
2023-05-24T06:29:20.676Z,5.70
2023-05-24T06:31:48.347Z,5.45
2023-05-24T06:34:18.990Z,5.63
2023-05-24T06:36:47.452Z,5.35
2023-05-24T06:39:15.150Z,5.10
2023-05-24T06:41:43.324Z,4.80
2023-05-24T06:44:10.498Z,5.22
2023-05-24T06:49:03.920Z,4.82
2023-05-24T06:51:31.076Z,5.45
2023-05-24T06:53:57.997Z,5.22
2023-05-24T06:56:25.478Z,5.22
2023-05-24T06:58:52.174Z,5.32
2023-05-24T07:01:18.917Z,5.47
2023-05-24T07:03:46.123Z,5.10
2023-05-24T07:08:42.035Z,5.40
2023-05-24T07:11:09.961Z,5.18
2023-05-24T07:13:36.683Z,5.85
2023-05-24T07:16:03.518Z,5.78
2023-05-24T07:18:30.747Z,6.45
2023-05-24T07:23:24.025Z,5.70
2023-05-24T07:25:50.949Z,6.82
2023-05-24T07:28:20.274Z,6.43
2023-05-24T07:30:47.202Z,6.10
2023-05-24T07:33:14.183Z,5.00
2023-05-24T07:35:41.939Z,5.65
2023-05-24T07:38:08.975Z,5.72
2023-05-24T07:40:35.752Z,5.63
2023-05-24T07:43:04.071Z,5.55
2023-05-24T07:45:31.862Z,5.63
2023-05-24T07:47:58.835Z,5.65
2023-05-24T07:50:26.639Z,5.53
2023-05-24T07:52:53.497Z,6.22
2023-05-24T07:55:20.266Z,5.78
2023-05-24T07:57:47.599Z,5.97
2023-05-24T08:00:15.173Z,5.20
2023-05-24T08:02:46.762Z,5.40
2023-05-24T08:05:14.276Z,5.70
2023-05-24T08:07:42.067Z,5.70
2023-05-24T08:10:15.443Z,5.47
2023-05-24T08:12:42.961Z,5.43
2023-05-24T08:15:10.367Z,4.90
2023-05-24T08:17:39.500Z,5.35
2023-05-24T08:20:08.655Z,5.35
2023-05-24T08:22:37.011Z,4.80
2023-05-24T08:25:03.857Z,5.20
2023-05-24T08:27:30.733Z,4.80
2023-05-24T08:29:57.396Z,5.35
2023-05-24T08:32:24.105Z,5.43
2023-05-24T08:34:51.153Z,5.45
2023-05-24T08:37:20.657Z,5.03
2023-05-24T08:39:47.388Z,5.25
2023-05-24T08:42:15.602Z,5.45
2023-05-24T08:45:09.254Z,4.90
2023-05-24T08:47:37.275Z,5.03
2023-05-24T08:50:05.451Z,4.88
2023-05-24T08:52:32.593Z,5.05
2023-05-24T08:57:27.650Z,4.80
2023-05-24T08:59:57.371Z,4.75
2023-05-24T09:02:24.558Z,5.50
2023-05-24T09:07:23.702Z,4.75
2023-05-24T09:09:57.543Z,4.30
2023-05-24T09:12:36.639Z,4.57
2023-05-24T09:15:06.335Z,5.10
2023-05-24T09:17:34.489Z,4.72
2023-05-24T09:20:01.530Z,5.10
2023-05-24T09:25:00.677Z,4.18
2023-05-24T09:27:27.896Z,4.53
2023-05-24T09:29:55.810Z,4.85
2023-05-24T09:32:26.165Z,4.50
2023-05-24T09:34:54.227Z,4.53
2023-05-24T09:37:28.151Z,4.82
2023-05-24T09:39:58.478Z,5.28
2023-05-24T09:42:28.405Z,4.45
2023-05-24T09:45:06.957Z,4.68
2023-05-24T09:47:35.615Z,4.68
2023-05-24T09:50:04.105Z,4.43
2023-05-24T09:52:32.109Z,4.30
2023-05-24T09:55:00.234Z,4.38
2023-05-24T09:57:28.320Z,4.30
2023-05-24T09:59:55.157Z,4.22
2023-05-24T10:02:23.966Z,4.47
2023-05-24T10:05:00.360Z,3.75
2023-05-24T10:07:27.468Z,4.40
2023-05-24T10:09:54.278Z,4.50
2023-05-24T10:12:23.322Z,4.20
2023-05-24T10:14:52.104Z,4.63
2023-05-24T10:17:18.778Z,4.20
2023-05-24T10:19:46.356Z,4.60
2023-05-24T10:22:16.002Z,3.92
2023-05-24T10:24:47.760Z,3.95
2023-05-24T10:27:18.504Z,4.38
2023-05-24T10:30:11.370Z,4.03
2023-05-24T10:32:42.322Z,4.10
2023-05-24T10:35:12.638Z,3.67
2023-05-24T10:37:39.574Z,3.55
2023-05-24T10:40:10.057Z,4.03
2023-05-24T10:42:39.101Z,3.78
2023-05-24T10:45:27.565Z,4.45
2023-05-24T10:47:54.743Z,3.53
2023-05-24T10:50:22.451Z,4.50
2023-05-24T10:52:49.507Z,4.78
2023-05-24T10:57:45.961Z,4.07
2023-05-24T11:00:34.778Z,4.03
2023-05-24T11:03:06.835Z,3.67
2023-05-24T11:05:47.032Z,3.83
2023-05-24T11:08:13.773Z,4.28
2023-05-24T11:10:44.419Z,3.67
2023-05-24T11:13:11.801Z,3.70
2023-05-24T11:18:13.851Z,3.90
2023-05-24T11:20:48.338Z,3.88
2023-05-24T11:23:16.427Z,3.92
2023-05-24T11:25:43.323Z,3.90
2023-05-24T11:28:12.475Z,3.40
2023-05-24T11:30:44.025Z,3.90
2023-05-24T11:33:18.930Z,4.03
2023-05-24T11:35:52.516Z,3.65
2023-05-24T11:38:24.193Z,3.83
2023-05-24T11:40:51.654Z,3.60
2023-05-24T11:43:22.150Z,3.40
2023-05-24T11:45:50.222Z,3.55
2023-05-24T11:48:18.598Z,2.97
2023-05-24T11:50:50.537Z,3.40
2023-05-24T11:53:19.897Z,3.00
2023-05-24T11:55:46.674Z,3.40
2023-05-24T11:58:49.647Z,2.85
2023-05-24T12:01:27.591Z,3.33
2023-05-24T12:03:55.248Z,2.90
2023-05-24T12:06:22.954Z,2.90
2023-05-24T12:08:50.277Z,2.97
2023-05-24T12:11:17.377Z,3.22
2023-05-24T12:16:13.255Z,2.83
2023-05-24T12:18:45.777Z,2.92
2023-05-24T12:21:20.537Z,3.05
2023-05-24T12:23:48.316Z,3.00
2023-05-24T12:26:20.534Z,2.60
2023-05-24T12:28:52.845Z,3.55
2023-05-24T12:31:19.813Z,3.28
2023-05-24T12:33:47.444Z,2.90
2023-05-24T12:36:14.262Z,2.85
2023-05-24T12:38:40.896Z,3.00
2023-05-24T12:41:13.431Z,3.10
2023-05-24T12:43:44.514Z,2.90
2023-05-24T12:46:11.468Z,3.17
2023-05-24T12:48:38.199Z,2.92
2023-05-24T12:51:04.919Z,2.92
2023-05-24T12:53:31.601Z,3.40
2023-05-24T12:56:00.577Z,3.20
2023-05-24T12:58:27.498Z,2.60
2023-05-24T13:00:54.483Z,2.90
2023-05-24T13:03:21.483Z,3.08
2023-05-24T13:05:48.241Z,3.00
2023-05-24T13:08:14.991Z,3.40
2023-05-24T13:10:41.959Z,3.08
2023-05-24T13:13:08.906Z,3.20
2023-05-24T13:15:36.322Z,3.25
2023-05-24T13:18:03.074Z,2.92
2023-05-24T13:20:29.970Z,2.97
2023-05-24T13:22:56.889Z,3.35
2023-05-24T13:25:23.818Z,3.10
2023-05-24T13:27:50.642Z,2.95
2023-05-24T13:30:17.569Z,3.00
2023-05-24T13:32:44.396Z,2.97
2023-05-24T13:35:11.424Z,3.00
2023-05-24T13:37:38.216Z,3.30
2023-05-24T13:40:06.201Z,3.47
2023-05-24T13:42:33.115Z,2.78
2023-05-24T13:44:59.958Z,2.90
2023-05-24T13:47:35.839Z,4.60
2023-05-24T13:50:06.181Z,3.20
2023-05-24T13:54:59.719Z,3.20
2023-05-24T13:57:33.696Z,3.13
2023-05-24T14:00:10.733Z,3.30
2023-05-24T14:02:38.792Z,3.33
2023-05-24T14:05:25.006Z,2.88
2023-05-24T14:07:52.274Z,3.45
2023-05-24T14:10:21.262Z,3.85
2023-05-24T14:12:59.591Z,3.80
2023-05-24T14:15:30.779Z,3.40
2023-05-24T14:17:58.916Z,3.80
2023-05-24T14:20:25.695Z,3.83
2023-05-24T14:22:52.675Z,3.80
2023-05-24T14:25:19.435Z,4.03
2023-05-24T14:27:46.424Z,3.90
2023-05-24T14:30:13.324Z,3.80
2023-05-24T14:32:40.125Z,3.60
2023-05-24T14:35:07.039Z,3.70
2023-05-24T14:37:33.730Z,3.78
2023-05-24T14:40:00.847Z,3.65
2023-05-24T14:44:54.064Z,3.40
2023-05-24T14:47:20.994Z,3.92
2023-05-24T14:49:47.715Z,3.50
2023-05-24T14:52:14.414Z,3.45
2023-05-24T14:54:41.133Z,3.20
2023-05-24T14:57:08.209Z,3.20
2023-05-24T14:59:35.025Z,3.75
2023-05-24T15:02:01.804Z,4.13
2023-05-24T15:04:28.465Z,3.92
2023-05-24T15:06:55.678Z,3.20
2023-05-24T15:14:15.736Z,7.45
2023-05-24T15:16:42.475Z,3.80
2023-05-24T15:19:10.091Z,4.00
2023-05-24T15:21:39.708Z,3.88
2023-05-24T15:24:06.763Z,3.60
2023-05-24T15:29:03.922Z,3.22
2023-05-24T15:31:30.610Z,3.25
2023-05-24T15:33:57.560Z,3.58
2023-05-24T15:36:24.263Z,3.63
2023-05-24T15:38:50.876Z,3.13
2023-05-24T15:41:17.685Z,3.30
2023-05-24T15:43:44.667Z,3.67
2023-05-24T15:46:11.386Z,3.90
2023-05-24T15:48:39.160Z,3.92
2023-05-24T15:53:37.364Z,3.85
2023-05-24T15:56:04.171Z,3.90
2023-05-24T15:58:31.046Z,4.03
2023-05-24T16:00:57.803Z,4.07
2023-05-24T16:03:24.674Z,3.78
2023-05-24T16:05:51.662Z,3.70
2023-05-24T16:08:18.620Z,3.92
2023-05-24T16:10:45.829Z,4.18
2023-05-24T16:15:41.855Z,4.05
2023-05-24T16:18:08.790Z,3.92
2023-05-24T16:20:35.520Z,3.80
2023-05-24T16:23:03.740Z,3.95
2023-05-24T16:25:30.442Z,4.35
2023-05-24T16:27:57.190Z,4.68
2023-05-24T16:30:24.097Z,4.40
2023-05-24T16:32:50.992Z,4.65
2023-05-24T16:35:17.674Z,3.85
2023-05-24T16:37:44.312Z,4.50
2023-05-24T16:40:11.894Z,4.70
2023-05-24T16:42:38.609Z,4.80
2023-05-24T16:45:06.095Z,4.70
2023-05-24T16:47:33.030Z,4.30
2023-05-24T16:49:59.852Z,4.95
2023-05-24T16:52:26.550Z,4.45
2023-05-24T16:54:53.195Z,4.55
2023-05-24T16:57:19.820Z,4.25
2023-05-24T16:59:50.609Z,4.68
2023-05-24T17:02:17.564Z,4.63
2023-05-24T17:04:44.487Z,4.80
2023-05-24T17:07:11.132Z,4.63
2023-05-24T17:09:38.140Z,5.20
2023-05-24T17:12:04.995Z,5.03
2023-05-24T17:14:31.808Z,4.30
2023-05-24T17:16:58.515Z,4.50
2023-05-24T17:19:25.309Z,4.88
2023-05-24T17:21:52.129Z,4.47
2023-05-24T17:24:18.774Z,4.63
2023-05-24T17:26:45.601Z,4.50
2023-05-24T17:29:12.592Z,4.68
2023-05-24T17:31:39.746Z,4.32
2023-05-24T17:36:33.790Z,4.60
2023-05-24T17:39:00.493Z,4.50
2023-05-24T17:41:27.092Z,4.93
2023-05-24T17:43:53.799Z,4.63
2023-05-24T17:46:20.696Z,4.55
2023-05-24T17:48:48.254Z,4.72
2023-05-24T17:51:15.236Z,4.20
2023-05-24T17:53:43.593Z,4.28
2023-05-24T17:56:10.383Z,4.32
2023-05-24T17:58:37.683Z,3.70
2023-05-24T18:01:05.731Z,3.45
2023-05-24T18:03:37.408Z,3.92
2023-05-24T18:06:06.774Z,3.95
2023-05-24T18:08:35.318Z,3.38
2023-05-24T18:11:07.944Z,4.10
2023-05-24T18:13:35.248Z,4.13
2023-05-24T18:18:29.806Z,4.35
2023-05-24T18:20:56.444Z,4.80
2023-05-24T18:23:23.066Z,4.70
2023-05-24T18:25:49.814Z,3.83
2023-05-24T18:28:16.508Z,4.13
2023-05-24T18:30:43.174Z,4.10
2023-05-24T18:33:10.027Z,4.28
2023-05-24T18:35:36.866Z,4.45
2023-05-24T18:38:04.480Z,4.70
2023-05-24T18:40:31.184Z,4.25
2023-05-24T18:42:57.836Z,4.43
2023-05-24T18:45:24.451Z,4.18
2023-05-24T18:47:51.166Z,4.60
2023-05-24T18:50:23.281Z,4.57
2023-05-24T18:52:50.438Z,5.00
2023-05-24T18:55:17.231Z,4.70
2023-05-24T18:57:43.964Z,5.03
2023-05-24T19:00:11.828Z,4.45
2023-05-24T19:02:39.702Z,4.78
2023-05-24T19:05:07.685Z,4.45
2023-05-24T19:07:35.569Z,4.18
2023-05-24T19:10:02.647Z,3.97
2023-05-24T19:12:30.207Z,4.40
2023-05-24T19:14:57.251Z,4.15
2023-05-24T19:17:25.083Z,4.20
2023-05-24T19:19:52.296Z,4.15
2023-05-24T19:22:19.205Z,3.85
2023-05-24T19:24:46.084Z,4.40
2023-05-24T19:27:12.955Z,4.25
2023-05-24T19:29:40.161Z,4.47
2023-05-24T19:34:35.425Z,4.03
2023-05-24T19:37:03.364Z,4.20
2023-05-24T19:39:30.174Z,4.40
2023-05-24T19:41:56.857Z,4.60
2023-05-24T19:44:23.534Z,4.47
2023-05-24T19:46:50.293Z,4.10
2023-05-24T19:49:16.949Z,4.20
2023-05-24T19:51:43.620Z,4.18
2023-05-24T19:54:11.217Z,4.40
2023-05-24T19:56:37.945Z,4.72
2023-05-24T19:59:04.634Z,4.90
2023-05-24T20:01:31.651Z,4.60
2023-05-24T20:03:58.574Z,5.40
2023-05-24T20:06:26.434Z,5.28
2023-05-24T20:08:53.414Z,4.85
2023-05-24T20:11:20.371Z,5.20
2023-05-24T20:13:47.076Z,4.85
2023-05-24T20:16:13.850Z,4.60
2023-05-24T20:18:40.895Z,4.82
2023-05-24T20:21:07.597Z,5.03
2023-05-24T20:23:34.239Z,5.55
2023-05-24T20:26:01.006Z,4.90
2023-05-24T20:28:31.609Z,4.82
2023-05-24T20:30:59.285Z,4.70
2023-05-24T20:35:54.103Z,5.13
2023-05-24T20:38:20.827Z,4.90
2023-05-24T20:40:47.559Z,4.78
2023-05-24T20:43:14.224Z,4.68
2023-05-24T20:45:41.019Z,5.13
2023-05-24T20:48:07.852Z,5.20
2023-05-24T20:50:34.541Z,5.55
2023-05-24T20:53:01.405Z,5.05
2023-05-24T20:55:28.068Z,5.50
2023-05-24T20:57:54.758Z,4.78
2023-05-24T21:00:21.713Z,5.05
2023-05-24T21:02:48.421Z,5.05
2023-05-24T21:05:15.466Z,5.30
2023-05-24T21:07:42.160Z,4.95
2023-05-24T21:10:09.502Z,5.05
2023-05-24T21:15:02.627Z,5.55
2023-05-24T21:17:29.360Z,5.32
2023-05-24T21:19:56.278Z,5.47
2023-05-24T21:22:23.024Z,4.90
2023-05-24T21:24:50.069Z,5.13
2023-05-24T21:27:18.800Z,5.43
2023-05-24T21:29:45.686Z,5.20
2023-05-24T21:32:12.336Z,5.15
2023-05-24T21:34:39.033Z,5.03
2023-05-24T21:37:05.875Z,5.35
2023-05-24T21:39:33.169Z,5.53
2023-05-24T21:41:59.889Z,5.30
2023-05-24T21:44:26.536Z,5.60
2023-05-24T21:46:53.243Z,5.10
2023-05-24T21:49:21.462Z,5.32
2023-05-24T21:51:48.221Z,5.30
2023-05-24T21:54:15.158Z,5.70
2023-05-24T21:56:41.853Z,5.13
2023-05-24T21:59:08.539Z,5.85
2023-05-24T22:01:35.304Z,5.93
2023-05-24T22:04:01.994Z,5.55
2023-05-24T22:06:28.736Z,5.80
2023-05-24T22:08:57.901Z,5.15
2023-05-24T22:11:24.552Z,5.57
2023-05-24T22:13:51.575Z,5.60
2023-05-24T22:16:18.325Z,5.80
2023-05-24T22:18:45.095Z,5.65
2023-05-24T22:21:14.481Z,5.88
2023-05-24T22:23:41.382Z,5.60
2023-05-24T22:26:07.997Z,5.55
2023-05-24T22:28:54.950Z,5.70
2023-05-24T22:33:49.533Z,5.38
2023-05-24T22:36:16.153Z,5.85
2023-05-24T22:38:42.911Z,5.57
2023-05-24T22:41:09.774Z,5.72
2023-05-24T22:43:36.536Z,5.40
2023-05-24T22:46:03.233Z,5.35
2023-05-24T22:48:34.028Z,5.50
2023-05-24T22:51:00.994Z,5.82
2023-05-24T22:53:28.487Z,5.50
2023-05-24T22:55:55.175Z,6.22
2023-05-24T22:58:24.136Z,5.43
2023-05-24T23:00:51.809Z,5.88
2023-05-24T23:03:18.505Z,5.50
2023-05-24T23:05:45.846Z,5.90
2023-05-24T23:08:15.485Z,5.97
2023-05-24T23:10:45.762Z,5.57
2023-05-24T23:13:13.749Z,5.88
2023-05-24T23:15:41.096Z,5.85
2023-05-24T23:23:06.018Z,5.82
2023-05-24T23:25:33.570Z,6.00
2023-05-24T23:28:01.325Z,6.10
2023-05-24T23:30:28.538Z,5.93
2023-05-24T23:32:55.290Z,6.25
2023-05-24T23:35:22.174Z,6.10
2023-05-24T23:37:48.848Z,6.20
2023-05-24T23:40:15.532Z,6.50
2023-05-24T23:42:42.329Z,6.20
2023-05-24T23:45:09.221Z,5.88
2023-05-24T23:47:35.871Z,6.25
2023-05-24T23:50:03.289Z,5.80
2023-05-24T23:54:56.876Z,6.20
2023-05-24T23:57:25.020Z,6.47
2023-05-24T23:59:51.797Z,6.00
